sensor_id;sensor_type;location;lat;lon;timestamp;pressure;altitude;pressure_sealevel;temperature;humidity
9439;BME280;5176;42.622;25.386;2023-02-14T00:02:26;98555.75;;;1.15;75.42
9439;BME280;5176;42.622;25.386;2023-02-14T00:04:56;98517.13;;;0.92;75.77
9439;BME280;5176;42.622;25.386;2023-02-14T00:07:40;98513.69;;;0.87;76.19
9439;BME280;5176;42.622;25.386;2023-02-14T00:13:26;98545.47;;;1.08;75.69
9439;BME280;5176;42.622;25.386;2023-02-14T00:15:53;98528.31;;;0.91;75.44
9439;BME280;5176;42.622;25.386;2023-02-14T00:18:20;98552.38;;;1.00;76.62
9439;BME280;5176;42.622;25.386;2023-02-14T00:20:47;98528.31;;;0.92;76.64
9439;BME280;5176;42.622;25.386;2023-02-14T00:23:14;98545.47;;;1.05;76.53
9439;BME280;5176;42.622;25.386;2023-02-14T00:25:41;98548.91;;;1.04;76.48
9439;BME280;5176;42.622;25.386;2023-02-14T00:28:09;98545.50;;;0.98;76.10
9439;BME280;5176;42.622;25.386;2023-02-14T00:30:38;98548.09;;;0.98;76.21
9439;BME280;5176;42.622;25.386;2023-02-14T00:33:05;98537.75;;;1.02;76.05
9439;BME280;5176;42.622;25.386;2023-02-14T00:35:36;98523.16;;;0.94;75.94
9439;BME280;5176;42.622;25.386;2023-02-14T00:38:04;98514.56;;;0.86;75.12
9439;BME280;5176;42.622;25.386;2023-02-14T00:40:32;98527.44;;;0.96;75.76
9439;BME280;5176;42.622;25.386;2023-02-14T00:42:59;98508.56;;;0.84;75.44
9439;BME280;5176;42.622;25.386;2023-02-14T00:45:27;98534.38;;;0.88;75.92
9439;BME280;5176;42.622;25.386;2023-02-14T00:47:56;98525.75;;;0.89;75.61
9439;BME280;5176;42.622;25.386;2023-02-14T00:50:23;98507.69;;;0.88;75.25
9439;BME280;5176;42.622;25.386;2023-02-14T00:52:50;98494.84;;;0.75;76.03
9439;BME280;5176;42.622;25.386;2023-02-14T00:55:20;98499.13;;;0.81;77.03
9439;BME280;5176;42.622;25.386;2023-02-14T00:57:47;98461.31;;;0.66;77.35
9439;BME280;5176;42.622;25.386;2023-02-14T01:00:15;98469.03;;;0.75;77.68
9439;BME280;5176;42.622;25.386;2023-02-14T01:02:42;98439.03;;;0.51;77.48
9439;BME280;5176;42.622;25.386;2023-02-14T01:05:19;98493.09;;;0.79;77.62
9439;BME280;5176;42.622;25.386;2023-02-14T01:07:46;98450.25;;;0.44;77.97
9439;BME280;5176;42.622;25.386;2023-02-14T01:10:16;98415.09;;;0.23;78.42
9439;BME280;5176;42.622;25.386;2023-02-14T01:13:01;98433.09;;;0.36;78.75
9439;BME280;5176;42.622;25.386;2023-02-14T01:15:40;98491.41;;;0.72;79.89
9439;BME280;5176;42.622;25.386;2023-02-14T01:18:11;98427.94;;;0.31;80.10
9439;BME280;5176;42.622;25.386;2023-02-14T01:20:49;98486.25;;;0.70;80.02
9439;BME280;5176;42.622;25.386;2023-02-14T01:23:16;98474.19;;;0.72;80.03
9439;BME280;5176;42.622;25.386;2023-02-14T01:25:47;98477.59;;;0.82;79.63
9439;BME280;5176;42.622;25.386;2023-02-14T01:28:14;98475.03;;;0.77;78.56
9439;BME280;5176;42.622;25.386;2023-02-14T01:30:41;98468.19;;;0.70;78.32
9439;BME280;5176;42.622;25.386;2023-02-14T01:33:08;98456.16;;;0.65;77.34
9439;BME280;5176;42.622;25.386;2023-02-14T01:35:36;98451.09;;;0.48;77.81
9439;BME280;5176;42.622;25.386;2023-02-14T01:38:05;98452.81;;;0.44;77.91
9439;BME280;5176;42.622;25.386;2023-02-14T01:40:33;98465.72;;;0.44;78.48
9439;BME280;5176;42.622;25.386;2023-02-14T01:43:00;98464.03;;;0.42;79.20
9439;BME280;5176;42.622;25.386;2023-02-14T01:45:28;98476.03;;;0.44;79.43
9439;BME280;5176;42.622;25.386;2023-02-14T01:47:56;98473.47;;;0.40;78.92
9439;BME280;5176;42.622;25.386;2023-02-14T01:50:27;98464.03;;;0.33;79.95
9439;BME280;5176;42.622;25.386;2023-02-14T01:53:07;98338.81;;;-0.42;79.52
9439;BME280;5176;42.622;25.386;2023-02-14T01:58:29;98336.28;;;-0.56;80.39
9439;BME280;5176;42.622;25.386;2023-02-14T02:01:00;98397.16;;;-0.15;80.89
9439;BME280;5176;42.622;25.386;2023-02-14T02:03:31;98456.34;;;0.19;80.44
9439;BME280;5176;42.622;25.386;2023-02-14T02:06:07;98441.75;;;0.21;81.31
9439;BME280;5176;42.622;25.386;2023-02-14T02:08:42;98434.91;;;0.08;81.57
9439;BME280;5176;42.622;25.386;2023-02-14T02:11:12;98442.66;;;0.08;82.25
9439;BME280;5176;42.622;25.386;2023-02-14T02:13:39;98445.19;;;0.15;82.22
9439;BME280;5176;42.622;25.386;2023-02-14T02:19:27;98420.25;;;0.13;81.03
9439;BME280;5176;42.622;25.386;2023-02-14T02:22:16;98416.84;;;0.14;81.40
9439;BME280;5176;42.622;25.386;2023-02-14T02:25:03;98424.56;;;0.21;80.71
9439;BME280;5176;42.622;25.386;2023-02-14T02:33:36;98393.66;;;0.08;80.88
9439;BME280;5176;42.622;25.386;2023-02-14T02:36:53;98414.25;;;0.17;79.86
9439;BME280;5176;42.622;25.386;2023-02-14T02:39:38;98399.69;;;0.08;80.39
9439;BME280;5176;42.622;25.386;2023-02-14T02:42:19;98407.44;;;0.01;80.74
9439;BME280;5176;42.622;25.386;2023-02-14T02:44:52;98402.28;;;-0.04;81.37
9439;BME280;5176;42.622;25.386;2023-02-14T02:47:27;98405.72;;;-0.02;81.68
9439;BME280;5176;42.622;25.386;2023-02-14T02:50:02;98401.41;;;-0.03;81.57
9439;BME280;5176;42.622;25.386;2023-02-14T02:52:54;98404.84;;;-0.01;81.99
9439;BME280;5176;42.622;25.386;2023-02-14T02:55:40;98404.84;;;0.02;82.28
9439;BME280;5176;42.622;25.386;2023-02-14T02:58:29;98395.38;;;0.03;82.43
9439;BME280;5176;42.622;25.386;2023-02-14T03:01:00;98393.72;;;-0.06;82.45
9439;BME280;5176;42.622;25.386;2023-02-14T03:03:32;98407.47;;;-0.06;82.34
9439;BME280;5176;42.622;25.386;2023-02-14T03:06:19;98395.50;;;-0.31;81.81
9439;BME280;5176;42.622;25.386;2023-02-14T03:08:49;98399.75;;;-0.19;82.61
9439;BME280;5176;42.622;25.386;2023-02-14T03:11:16;98406.63;;;-0.23;82.95
9439;BME280;5176;42.622;25.386;2023-02-14T03:16:38;98398.03;;;-0.22;83.43
9439;BME280;5176;42.622;25.386;2023-02-14T03:19:28;98402.34;;;-0.25;82.69
9439;BME280;5176;42.622;25.386;2023-02-14T03:22:01;98421.25;;;-0.25;82.62
9439;BME280;5176;42.622;25.386;2023-02-14T03:24:38;98368.91;;;-0.56;82.67
9439;BME280;5176;42.622;25.386;2023-02-14T03:27:14;98403.22;;;-0.31;83.11
9439;BME280;5176;42.622;25.386;2023-02-14T03:29:52;98393.75;;;-0.29;82.18
9439;BME280;5176;42.622;25.386;2023-02-14T03:32:28;98371.47;;;-0.50;81.66
9439;BME280;5176;42.622;25.386;2023-02-14T03:35:01;98396.38;;;-0.38;82.61
9439;BME280;5176;42.622;25.386;2023-02-14T03:37:33;98385.16;;;-0.34;82.36
9439;BME280;5176;42.622;25.386;2023-02-14T03:40:10;98383.47;;;-0.31;81.86
9439;BME280;5176;42.622;25.386;2023-02-14T03:42:44;98362.84;;;-0.29;80.94
9439;BME280;5176;42.622;25.386;2023-02-14T03:45:15;98346.53;;;-0.37;81.33
9439;BME280;5176;42.622;25.386;2023-02-14T03:47:44;98368.00;;;-0.37;81.98
9439;BME280;5176;42.622;25.386;2023-02-14T03:50:16;98351.72;;;-0.48;82.42
9439;BME280;5176;42.622;25.386;2023-02-14T03:52:47;98347.41;;;-0.43;82.24
9439;BME280;5176;42.622;25.386;2023-02-14T03:55:23;98366.28;;;-0.32;82.45
9439;BME280;5176;42.622;25.386;2023-02-14T03:57:54;98340.53;;;-0.36;81.91
9439;BME280;5176;42.622;25.386;2023-02-14T04:00:25;98343.97;;;-0.39;81.49
9439;BME280;5176;42.622;25.386;2023-02-14T04:02:56;98350.84;;;-0.38;81.19
9439;BME280;5176;42.622;25.386;2023-02-14T04:05:27;98347.44;;;-0.40;81.46
9439;BME280;5176;42.622;25.386;2023-02-14T04:07:56;98344.00;;;-0.45;81.66
9439;BME280;5176;42.622;25.386;2023-02-14T04:10:26;98344.00;;;-0.54;81.55
9439;BME280;5176;42.622;25.386;2023-02-14T04:12:53;98333.72;;;-0.62;82.42
9439;BME280;5176;42.622;25.386;2023-02-14T04:15:20;98322.56;;;-0.70;82.04
9439;BME280;5176;42.622;25.386;2023-02-14T04:17:48;98316.56;;;-0.72;82.86
9439;BME280;5176;42.622;25.386;2023-02-14T04:20:40;98349.19;;;-0.71;82.44
9439;BME280;5176;42.622;25.386;2023-02-14T04:23:08;98351.75;;;-0.57;83.31
9439;BME280;5176;42.622;25.386;2023-02-14T04:25:37;98268.56;;;-1.08;83.18
9439;BME280;5176;42.622;25.386;2023-02-14T04:28:07;98288.25;;;-0.87;82.63
9439;BME280;5176;42.622;25.386;2023-02-14T04:30:34;98327.69;;;-0.55;82.63
9439;BME280;5176;42.622;25.386;2023-02-14T04:33:02;98336.28;;;-0.56;83.41
9439;BME280;5176;42.622;25.386;2023-02-14T04:35:29;98327.69;;;-0.56;83.78
9439;BME280;5176;42.622;25.386;2023-02-14T04:37:56;98325.97;;;-0.57;83.36
9439;BME280;5176;42.622;25.386;2023-02-14T04:40:23;98321.69;;;-0.57;84.58
9439;BME280;5176;42.622;25.386;2023-02-14T04:42:53;98320.81;;;-0.49;84.26
9439;BME280;5176;42.622;25.386;2023-02-14T04:45:20;98312.25;;;-0.51;83.37
9439;BME280;5176;42.622;25.386;2023-02-14T04:47:48;98313.06;;;-0.45;82.85
9439;BME280;5176;42.622;25.386;2023-02-14T04:50:15;98315.66;;;-0.48;83.18
9439;BME280;5176;42.622;25.386;2023-02-14T04:52:42;98324.25;;;-0.44;83.40
9439;BME280;5176;42.622;25.386;2023-02-14T04:55:09;98298.53;;;-0.60;83.04
9439;BME280;5176;42.622;25.386;2023-02-14T04:57:37;98317.38;;;-0.48;82.16
9439;BME280;5176;42.622;25.386;2023-02-14T05:00:06;98334.56;;;-0.57;82.46
9439;BME280;5176;42.622;25.386;2023-02-14T05:02:34;98333.69;;;-0.54;82.37
9439;BME280;5176;42.622;25.386;2023-02-14T05:05:01;98336.28;;;-0.62;82.71
9439;BME280;5176;42.622;25.386;2023-02-14T05:07:29;98342.34;;;-0.72;82.51
9439;BME280;5176;42.622;25.386;2023-02-14T05:09:56;98338.88;;;-0.69;82.99
9439;BME280;5176;42.622;25.386;2023-02-14T05:12:23;98344.06;;;-0.78;83.71
9439;BME280;5176;42.622;25.386;2023-02-14T05:14:50;98336.31;;;-0.88;84.90
9439;BME280;5176;42.622;25.386;2023-02-14T05:17:19;98341.50;;;-0.80;84.68
9439;BME280;5176;42.622;25.386;2023-02-14T05:19:46;98285.72;;;-1.04;84.57
9439;BME280;5176;42.622;25.386;2023-02-14T05:22:13;98324.31;;;-0.89;84.58
9439;BME280;5176;42.622;25.386;2023-02-14T05:24:40;98330.31;;;-0.70;86.01
9439;BME280;5176;42.622;25.386;2023-02-14T05:27:07;98324.28;;;-0.67;85.67
9439;BME280;5176;42.622;25.386;2023-02-14T05:29:36;98332.00;;;-0.52;84.66
9439;BME280;5176;42.622;25.386;2023-02-14T05:32:04;98325.09;;;-0.42;83.57
9439;BME280;5176;42.622;25.386;2023-02-14T05:34:32;98304.47;;;-0.47;83.23
9439;BME280;5176;42.622;25.386;2023-02-14T05:37:00;98232.50;;;-0.88;83.15
9439;BME280;5176;42.622;25.386;2023-02-14T05:39:28;98319.94;;;-0.38;82.70
9439;BME280;5176;42.622;25.386;2023-02-14T05:41:56;98310.50;;;-0.39;83.42
9439;BME280;5176;42.622;25.386;2023-02-14T05:44:24;98325.06;;;-0.30;83.26
9439;BME280;5176;42.622;25.386;2023-02-14T05:46:51;98330.19;;;-0.29;82.75
9439;BME280;5176;42.622;25.386;2023-02-14T05:49:19;98329.34;;;-0.31;82.48
9439;BME280;5176;42.622;25.386;2023-02-14T05:51:48;98322.47;;;-0.25;82.93
9439;BME280;5176;42.622;25.386;2023-02-14T05:54:16;98320.75;;;-0.25;82.73
9439;BME280;5176;42.622;25.386;2023-02-14T05:56:43;98318.19;;;-0.26;82.54
9439;BME280;5176;42.622;25.386;2023-02-14T05:59:11;98319.81;;;-0.10;82.82
9439;BME280;5176;42.622;25.386;2023-02-14T06:01:39;98318.09;;;-0.05;82.54
9439;BME280;5176;42.622;25.386;2023-02-14T06:04:06;98308.66;;;-0.06;82.40
9439;BME280;5176;42.622;25.386;2023-02-14T06:06:33;98311.97;;;0.14;82.05
9439;BME280;5176;42.622;25.386;2023-02-14T06:09:02;98317.09;;;0.19;81.63
9439;BME280;5176;42.622;25.386;2023-02-14T06:11:29;98319.69;;;0.20;81.68
9439;BME280;5176;42.622;25.386;2023-02-14T06:13:57;98315.28;;;0.33;81.18
9439;BME280;5176;42.622;25.386;2023-02-14T06:16:24;98310.09;;;0.42;80.76
9439;BME280;5176;42.622;25.386;2023-02-14T06:18:51;98316.06;;;0.49;80.78
9439;BME280;5176;42.622;25.386;2023-02-14T06:21:18;98313.41;;;0.60;80.28
9439;BME280;5176;42.622;25.386;2023-02-14T06:23:49;98315.88;;;0.73;79.52
9439;BME280;5176;42.622;25.386;2023-02-14T06:26:18;98276.34;;;0.70;78.04
9439;BME280;5176;42.622;25.386;2023-02-14T06:28:45;98316.50;;;1.07;77.89
9439;BME280;5176;42.622;25.386;2023-02-14T06:31:16;98318.19;;;1.10;77.74
9439;BME280;5176;42.622;25.386;2023-02-14T06:33:43;98319.69;;;1.31;76.72
9439;BME280;5176;42.622;25.386;2023-02-14T06:36:11;98317.78;;;1.50;76.08
9439;BME280;5176;42.622;25.386;2023-02-14T06:38:39;98292.69;;;1.59;75.67
9439;BME280;5176;42.622;25.386;2023-02-14T06:41:08;98309.63;;;1.88;74.93
9439;BME280;5176;42.622;25.386;2023-02-14T06:43:37;98298.16;;;2.06;73.16
9439;BME280;5176;42.622;25.386;2023-02-14T06:46:04;98306.47;;;2.29;71.96
9439;BME280;5176;42.622;25.386;2023-02-14T06:48:31;98302.84;;;2.42;72.45
9439;BME280;5176;42.622;25.386;2023-02-14T06:50:59;98286.41;;;2.45;70.73
9439;BME280;5176;42.622;25.386;2023-02-14T06:53:26;98300.53;;;2.80;69.90
9439;BME280;5176;42.622;25.386;2023-02-14T06:55:53;98305.41;;;3.01;68.57
9439;BME280;5176;42.622;25.386;2023-02-14T06:58:21;98300.00;;;3.12;68.29
9439;BME280;5176;42.622;25.386;2023-02-14T07:00:49;98299.78;;;3.25;67.83
9439;BME280;5176;42.622;25.386;2023-02-14T07:03:16;98263.47;;;3.27;67.40
9439;BME280;5176;42.622;25.386;2023-02-14T07:05:43;98291.22;;;3.68;66.28
9439;BME280;5176;42.622;25.386;2023-02-14T07:08:11;98281.06;;;3.99;66.16
9439;BME280;5176;42.622;25.386;2023-02-14T07:10:38;98283.91;;;4.27;64.85
9439;BME280;5176;42.622;25.386;2023-02-14T07:13:06;98284.31;;;4.49;64.49
9439;BME280;5176;42.622;25.386;2023-02-14T07:15:33;98255.47;;;4.61;63.47
9439;BME280;5176;42.622;25.386;2023-02-14T07:18:02;98287.38;;;5.02;62.04
9439;BME280;5176;42.622;25.386;2023-02-14T07:20:29;98295.38;;;5.27;60.79
9439;BME280;5176;42.622;25.386;2023-02-14T07:22:56;98282.84;;;5.43;61.05
9439;BME280;5176;42.622;25.386;2023-02-14T07:25:23;98290.13;;;5.63;60.55
9439;BME280;5176;42.622;25.386;2023-02-14T07:27:53;98274.94;;;5.79;60.27
9439;BME280;5176;42.622;25.386;2023-02-14T07:30:20;98245.50;;;5.77;60.16
9439;BME280;5176;42.622;25.386;2023-02-14T07:32:47;98271.44;;;6.11;59.41
9439;BME280;5176;42.622;25.386;2023-02-14T07:35:16;98280.44;;;6.28;59.45
9439;BME280;5176;42.622;25.386;2023-02-14T07:37:43;98280.88;;;6.43;58.64
9439;BME280;5176;42.622;25.386;2023-02-14T07:40:11;98283.34;;;6.47;57.00
9439;BME280;5176;42.622;25.386;2023-02-14T07:42:40;98282.09;;;6.59;55.98
9439;BME280;5176;42.622;25.386;2023-02-14T07:45:08;98294.19;;;6.62;55.44
9439;BME280;5176;42.622;25.386;2023-02-14T07:47:36;98261.94;;;6.38;54.52
9439;BME280;5176;42.622;25.386;2023-02-14T07:50:04;98281.00;;;6.66;55.30
9439;BME280;5176;42.622;25.386;2023-02-14T07:52:34;98289.34;;;6.77;54.98
9439;BME280;5176;42.622;25.386;2023-02-14T07:55:01;98292.63;;;6.84;54.07
9439;BME280;5176;42.622;25.386;2023-02-14T07:57:29;98285.94;;;7.02;52.92
9439;BME280;5176;42.622;25.386;2023-02-14T07:59:56;98292.81;;;7.31;51.91
9439;BME280;5176;42.622;25.386;2023-02-14T08:02:23;98267.47;;;7.34;51.31
9439;BME280;5176;42.622;25.386;2023-02-14T08:04:50;98297.38;;;7.74;52.08
9439;BME280;5176;42.622;25.386;2023-02-14T08:07:18;98291.84;;;8.07;50.44
9439;BME280;5176;42.622;25.386;2023-02-14T08:09:46;98308.25;;;8.34;49.89
9439;BME280;5176;42.622;25.386;2023-02-14T08:12:13;98296.81;;;8.60;49.02
9439;BME280;5176;42.622;25.386;2023-02-14T08:14:58;98302.88;;;8.84;47.92
9439;BME280;5176;42.622;25.386;2023-02-14T08:17:45;98288.81;;;8.86;48.13
9439;BME280;5176;42.622;25.386;2023-02-14T08:20:13;98281.28;;;8.79;47.78
9439;BME280;5176;42.622;25.386;2023-02-14T08:22:41;98273.34;;;8.80;48.32
9439;BME280;5176;42.622;25.386;2023-02-14T08:25:10;98258.22;;;8.88;47.73
9439;BME280;5176;42.622;25.386;2023-02-14T08:27:38;98259.19;;;8.86;46.72
9439;BME280;5176;42.622;25.386;2023-02-14T08:30:06;98249.00;;;9.00;46.68
9439;BME280;5176;42.622;25.386;2023-02-14T08:32:33;98257.97;;;8.94;46.96
9439;BME280;5176;42.622;25.386;2023-02-14T08:35:00;98223.81;;;8.77;46.88
9439;BME280;5176;42.622;25.386;2023-02-14T08:37:27;98261.66;;;9.11;46.11
9439;BME280;5176;42.622;25.386;2023-02-14T08:39:54;98254.59;;;9.33;45.34
9439;BME280;5176;42.622;25.386;2023-02-14T08:42:23;98255.59;;;9.31;45.71
9439;BME280;5176;42.622;25.386;2023-02-14T08:44:50;98247.66;;;9.32;45.36
9439;BME280;5176;42.622;25.386;2023-02-14T08:47:17;98256.28;;;9.14;45.59
9439;BME280;5176;42.622;25.386;2023-02-14T08:49:45;98257.38;;;9.08;46.04
9439;BME280;5176;42.622;25.386;2023-02-14T08:52:12;98219.56;;;9.17;45.36
9439;BME280;5176;42.622;25.386;2023-02-14T08:54:40;98253.88;;;9.70;44.71
9439;BME280;5176;42.622;25.386;2023-02-14T08:57:07;98249.91;;;9.80;44.42
9439;BME280;5176;42.622;25.386;2023-02-14T08:59:36;98249.13;;;9.78;44.66
9439;BME280;5176;42.622;25.386;2023-02-14T09:02:03;98159.03;;;9.24;43.61
9439;BME280;5176;42.622;25.386;2023-02-14T09:07:00;98247.00;;;9.47;44.38
9439;BME280;5176;42.622;25.386;2023-02-14T09:09:29;98259.13;;;9.50;44.13
9439;BME280;5176;42.622;25.386;2023-02-14T09:11:57;98244.00;;;9.57;44.36
9439;BME280;5176;42.622;25.386;2023-02-14T09:14:26;98241.28;;;9.78;44.76
9439;BME280;5176;42.622;25.386;2023-02-14T09:16:54;98245.13;;;9.51;44.58
9439;BME280;5176;42.622;25.386;2023-02-14T09:19:21;98229.09;;;9.38;44.94
9439;BME280;5176;42.622;25.386;2023-02-14T09:21:49;98253.31;;;9.62;45.27
9439;BME280;5176;42.622;25.386;2023-02-14T09:24:16;98253.59;;;9.56;44.52
9439;BME280;5176;42.622;25.386;2023-02-14T09:26:43;98243.72;;;9.42;45.29
9439;BME280;5176;42.622;25.386;2023-02-14T09:29:10;98257.41;;;9.28;45.50
9439;BME280;5176;42.622;25.386;2023-02-14T09:31:38;98177.03;;;8.91;45.38
9439;BME280;5176;42.622;25.386;2023-02-14T09:34:07;98259.16;;;9.48;44.87
9439;BME280;5176;42.622;25.386;2023-02-14T09:36:51;98251.25;;;9.70;44.33
9439;BME280;5176;42.622;25.386;2023-02-14T09:39:36;98251.56;;;9.42;44.51
9439;BME280;5176;42.622;25.386;2023-02-14T09:42:19;98236.28;;;9.33;44.69
9439;BME280;5176;42.622;25.386;2023-02-14T09:44:49;98246.31;;;9.44;44.41
9439;BME280;5176;42.622;25.386;2023-02-14T09:47:22;98253.22;;;9.24;44.17
9439;BME280;5176;42.622;25.386;2023-02-14T09:49:58;98247.34;;;9.40;44.57
9439;BME280;5176;42.622;25.386;2023-02-14T09:52:28;98246.19;;;9.66;45.05
9439;BME280;5176;42.622;25.386;2023-02-14T09:54:57;98233.72;;;9.52;44.35
9439;BME280;5176;42.622;25.386;2023-02-14T09:57:34;98241.84;;;9.46;44.42
9439;BME280;5176;42.622;25.386;2023-02-14T10:00:13;98235.22;;;9.58;44.62
9439;BME280;5176;42.622;25.386;2023-02-14T10:02:49;98224.50;;;9.64;44.96
9439;BME280;5176;42.622;25.386;2023-02-14T10:05:25;98234.88;;;9.65;44.08
9439;BME280;5176;42.622;25.386;2023-02-14T10:07:59;98218.53;;;9.60;43.95
9439;BME280;5176;42.622;25.386;2023-02-14T10:10:38;98217.34;;;9.86;44.44
9439;BME280;5176;42.622;25.386;2023-02-14T10:13:12;98193.88;;;9.85;43.87
9439;BME280;5176;42.622;25.386;2023-02-14T10:15:45;98217.34;;;9.67;43.86
9439;BME280;5176;42.622;25.386;2023-02-14T10:18:16;98201.06;;;9.79;45.05
9439;BME280;5176;42.622;25.386;2023-02-14T10:20:51;98205.31;;;10.01;44.28
9439;BME280;5176;42.622;25.386;2023-02-14T10:23:28;98196.63;;;10.00;44.21
9439;BME280;5176;42.622;25.386;2023-02-14T10:25:59;98192.94;;;10.04;43.44
9439;BME280;5176;42.622;25.386;2023-02-14T10:28:31;98188.47;;;10.06;43.74
9439;BME280;5176;42.622;25.386;2023-02-14T10:31:13;98189.47;;;10.04;43.32
9439;BME280;5176;42.622;25.386;2023-02-14T10:33:52;98185.88;;;10.25;43.30
9439;BME280;5176;42.622;25.386;2023-02-14T10:36:34;98185.97;;;10.22;43.53
9439;BME280;5176;42.622;25.386;2023-02-14T10:39:09;98185.56;;;9.94;43.28
9439;BME280;5176;42.622;25.386;2023-02-14T10:41:46;98196.75;;;9.78;43.87
9439;BME280;5176;42.622;25.386;2023-02-14T10:44:36;98186.25;;;9.60;43.96
9439;BME280;5176;42.622;25.386;2023-02-14T10:47:13;98177.66;;;9.37;43.87
9439;BME280;5176;42.622;25.386;2023-02-14T10:49:55;98184.19;;;9.47;45.22
9439;BME280;5176;42.622;25.386;2023-02-14T10:52:31;98165.25;;;9.61;44.44
9439;BME280;5176;42.622;25.386;2023-02-14T10:55:10;98181.41;;;9.90;43.62
9439;BME280;5176;42.622;25.386;2023-02-14T10:57:41;98174.66;;;9.65;43.20
9439;BME280;5176;42.622;25.386;2023-02-14T11:00:16;98183.78;;;9.57;44.08
9439;BME280;5176;42.622;25.386;2023-02-14T11:02:49;98181.09;;;9.96;44.05
9439;BME280;5176;42.622;25.386;2023-02-14T11:05:24;98168.16;;;10.12;43.17
9439;BME280;5176;42.622;25.386;2023-02-14T11:07:54;98179.13;;;10.01;43.11
9439;BME280;5176;42.622;25.386;2023-02-14T11:10:25;98189.53;;;10.21;42.68
9439;BME280;5176;42.622;25.386;2023-02-14T11:12:54;98177.72;;;10.13;42.42
9439;BME280;5176;42.622;25.386;2023-02-14T11:15:25;98153.16;;;9.77;42.80
9439;BME280;5176;42.622;25.386;2023-02-14T11:18:20;98186.50;;;9.93;42.38
9439;BME280;5176;42.622;25.386;2023-02-14T11:20:58;98171.78;;;10.28;43.32
9439;BME280;5176;42.622;25.386;2023-02-14T11:23:32;98166.09;;;10.18;42.26
9439;BME280;5176;42.622;25.386;2023-02-14T11:25:59;98165.56;;;10.30;42.74
9439;BME280;5176;42.622;25.386;2023-02-14T11:28:29;98147.84;;;10.53;42.23
9439;BME280;5176;42.622;25.386;2023-02-14T11:30:56;98152.66;;;10.26;42.33
9439;BME280;5176;42.622;25.386;2023-02-14T11:33:31;98158.06;;;10.21;42.51
9439;BME280;5176;42.622;25.386;2023-02-14T11:36:00;98139.06;;;10.54;42.32
9439;BME280;5176;42.622;25.386;2023-02-14T11:38:32;98150.84;;;10.45;42.03
9439;BME280;5176;42.622;25.386;2023-02-14T11:41:02;98146.84;;;10.55;43.33
9439;BME280;5176;42.622;25.386;2023-02-14T11:43:32;98126.56;;;10.42;42.08
9439;BME280;5176;42.622;25.386;2023-02-14T11:46:07;98128.03;;;10.30;42.37
9439;BME280;5176;42.622;25.386;2023-02-14T11:48:53;98108.78;;;10.29;42.44
9439;BME280;5176;42.622;25.386;2023-02-14T11:51:26;98134.75;;;9.98;43.03
9439;BME280;5176;42.622;25.386;2023-02-14T11:53:57;98124.09;;;9.83;43.68
9439;BME280;5176;42.622;25.386;2023-02-14T11:56:47;98128.13;;;9.72;44.12
9439;BME280;5176;42.622;25.386;2023-02-14T11:59:35;98137.75;;;9.90;43.32
9439;BME280;5176;42.622;25.386;2023-02-14T12:02:16;98136.03;;;9.70;43.20
9439;BME280;5176;42.622;25.386;2023-02-14T12:04:48;98122.88;;;9.91;43.20
9439;BME280;5176;42.622;25.386;2023-02-14T12:07:22;98124.31;;;9.96;44.37
9439;BME280;5176;42.622;25.386;2023-02-14T12:10:17;98120.53;;;10.03;44.36
9439;BME280;5176;42.622;25.386;2023-02-14T12:12:49;98074.91;;;9.71;43.17
9439;BME280;5176;42.622;25.386;2023-02-14T12:15:24;98102.22;;;9.66;43.35
9439;BME280;5176;42.622;25.386;2023-02-14T12:17:58;98102.13;;;9.67;44.43
9439;BME280;5176;42.622;25.386;2023-02-14T12:20:34;98104.91;;;9.83;43.88
9439;BME280;5176;42.622;25.386;2023-02-14T12:23:09;98100.94;;;9.74;44.02
9439;BME280;5176;42.622;25.386;2023-02-14T12:25:44;98099.59;;;9.66;43.89
9439;BME280;5176;42.622;25.386;2023-02-14T12:28:18;98102.22;;;9.66;43.86
9439;BME280;5176;42.622;25.386;2023-02-14T12:30:48;98092.44;;;9.69;44.13
9439;BME280;5176;42.622;25.386;2023-02-14T12:33:18;98086.72;;;9.61;44.23
9439;BME280;5176;42.622;25.386;2023-02-14T12:35:53;98082.97;;;9.48;44.91
9439;BME280;5176;42.622;25.386;2023-02-14T12:38:33;98087.56;;;9.62;44.39
9439;BME280;5176;42.622;25.386;2023-02-14T12:41:15;98090.31;;;9.77;44.00
9439;BME280;5176;42.622;25.386;2023-02-14T12:43:46;98069.88;;;9.29;44.05
9439;BME280;5176;42.622;25.386;2023-02-14T12:46:46;98087.63;;;9.02;45.34
9439;BME280;5176;42.622;25.386;2023-02-14T12:49:40;98088.13;;;8.91;45.52
9439;BME280;5176;42.622;25.386;2023-02-14T12:52:39;98081.16;;;8.71;45.70
9439;BME280;5176;42.622;25.386;2023-02-14T12:55:22;98077.41;;;8.77;46.21
9439;BME280;5176;42.622;25.386;2023-02-14T12:58:01;98075.16;;;8.69;46.42
9439;BME280;5176;42.622;25.386;2023-02-14T13:00:37;98088.91;;;8.73;46.91
9439;BME280;5176;42.622;25.386;2023-02-14T13:06:13;98087.06;;;8.55;47.46
9439;BME280;5176;42.622;25.386;2023-02-14T13:08:54;98069.00;;;8.50;48.02
9439;BME280;5176;42.622;25.386;2023-02-14T13:11:35;98073.22;;;8.53;48.34
9439;BME280;5176;42.622;25.386;2023-02-14T13:14:16;98064.47;;;8.54;48.58
9439;BME280;5176;42.622;25.386;2023-02-14T13:16:51;98082.94;;;8.49;48.54
9439;BME280;5176;42.622;25.386;2023-02-14T13:19:33;98080.59;;;8.21;49.83
9439;BME280;5176;42.622;25.386;2023-02-14T13:22:04;98077.03;;;8.24;50.39
9439;BME280;5176;42.622;25.386;2023-02-14T13:24:37;98079.56;;;8.25;50.27
9439;BME280;5176;42.622;25.386;2023-02-14T13:27:10;98048.19;;;8.05;50.87
9439;BME280;5176;42.622;25.386;2023-02-14T13:29:44;98087.94;;;8.33;49.93
9439;BME280;5176;42.622;25.386;2023-02-14T13:32:14;98078.34;;;8.34;49.44
9439;BME280;5176;42.622;25.386;2023-02-14T13:34:46;98081.16;;;8.29;49.81
9439;BME280;5176;42.622;25.386;2023-02-14T13:37:16;98094.22;;;8.29;50.06
9439;BME280;5176;42.622;25.386;2023-02-14T13:39:46;98097.84;;;8.25;50.68
9439;BME280;5176;42.622;25.386;2023-02-14T13:45:53;98085.78;;;8.23;50.34
9439;BME280;5176;42.622;25.386;2023-02-14T13:48:22;98091.22;;;7.96;50.75
9439;BME280;5176;42.622;25.386;2023-02-14T13:50:53;98069.97;;;7.83;50.45
9439;BME280;5176;42.622;25.386;2023-02-14T13:53:30;98072.19;;;7.92;49.61
9439;BME280;5176;42.622;25.386;2023-02-14T13:55:58;98065.13;;;7.95;49.87
9439;BME280;5176;42.622;25.386;2023-02-14T13:58:26;98061.69;;;7.94;49.41
9439;BME280;5176;42.622;25.386;2023-02-14T14:00:56;98047.66;;;7.75;49.83
9439;BME280;5176;42.622;25.386;2023-02-14T14:03:55;98080.19;;;7.88;50.18
9439;BME280;5176;42.622;25.386;2023-02-14T14:06:23;98064.66;;;7.85;50.21
9439;BME280;5176;42.622;25.386;2023-02-14T14:08:51;98069.34;;;7.77;50.12
9439;BME280;5176;42.622;25.386;2023-02-14T14:14:30;98077.28;;;7.52;49.81